sensor_id;sensor_type;location;lat;lon;timestamp;P1;durP1;ratioP1;P2;durP2;ratioP2
2257;SDS011;1136;51.574;7.706;2023-02-28T00:00:12;4.30;;;2.80;;
2257;SDS011;1136;51.574;7.706;2023-02-28T00:02:40;2.10;;;2.00;;
2257;SDS011;1136;51.574;7.706;2023-02-28T00:05:08;2.80;;;2.60;;
2257;SDS011;1136;51.574;7.706;2023-02-28T00:07:36;4.43;;;2.40;;
2257;SDS011;1136;51.574;7.706;2023-02-28T00:10:04;3.23;;;2.93;;
2257;SDS011;1136;51.574;7.706;2023-02-28T00:12:33;3.40;;;2.70;;
2257;SDS011;1136;51.574;7.706;2023-02-28T00:15:01;5.07;;;3.00;;
2257;SDS011;1136;51.574;7.706;2023-02-28T00:17:27;4.00;;;2.27;;
2257;SDS011;1136;51.574;7.706;2023-02-28T00:19:54;3.87;;;3.00;;
2257;SDS011;1136;51.574;7.706;2023-02-28T00:22:21;2.73;;;2.53;;
2257;SDS011;1136;51.574;7.706;2023-02-28T00:24:48;2.83;;;2.63;;
2257;SDS011;1136;51.574;7.706;2023-02-28T00:27:14;2.73;;;2.53;;
2257;SDS011;1136;51.574;7.706;2023-02-28T00:29:41;5.20;;;2.80;;
2257;SDS011;1136;51.574;7.706;2023-02-28T00:32:08;3.27;;;2.90;;
2257;SDS011;1136;51.574;7.706;2023-02-28T00:34:34;3.40;;;3.07;;
2257;SDS011;1136;51.574;7.706;2023-02-28T00:37:07;4.20;;;3.07;;
2257;SDS011;1136;51.574;7.706;2023-02-28T00:39:35;6.07;;;3.17;;
2257;SDS011;1136;51.574;7.706;2023-02-28T00:42:03;6.97;;;2.47;;
2257;SDS011;1136;51.574;7.706;2023-02-28T00:44:30;3.27;;;2.57;;
2257;SDS011;1136;51.574;7.706;2023-02-28T00:46:57;3.00;;;2.43;;
2257;SDS011;1136;51.574;7.706;2023-02-28T00:49:25;4.93;;;3.07;;
2257;SDS011;1136;51.574;7.706;2023-02-28T00:51:53;3.40;;;2.90;;
2257;SDS011;1136;51.574;7.706;2023-02-28T00:54:21;5.27;;;3.10;;
2257;SDS011;1136;51.574;7.706;2023-02-28T00:56:49;4.57;;;3.00;;
2257;SDS011;1136;51.574;7.706;2023-02-28T00:59:17;3.83;;;2.43;;
2257;SDS011;1136;51.574;7.706;2023-02-28T01:01:45;3.57;;;3.27;;
2257;SDS011;1136;51.574;7.706;2023-02-28T01:04:12;5.00;;;3.20;;
2257;SDS011;1136;51.574;7.706;2023-02-28T01:06:39;6.60;;;3.10;;
2257;SDS011;1136;51.574;7.706;2023-02-28T01:09:06;3.93;;;3.20;;
2257;SDS011;1136;51.574;7.706;2023-02-28T01:11:34;4.20;;;3.80;;
2257;SDS011;1136;51.574;7.706;2023-02-28T01:14:02;6.20;;;3.40;;
2257;SDS011;1136;51.574;7.706;2023-02-28T01:16:30;4.37;;;3.60;;
2257;SDS011;1136;51.574;7.706;2023-02-28T01:18:57;7.50;;;4.70;;
2257;SDS011;1136;51.574;7.706;2023-02-28T01:21:24;12.53;;;5.80;;
2257;SDS011;1136;51.574;7.706;2023-02-28T01:23:50;9.83;;;5.70;;
2257;SDS011;1136;51.574;7.706;2023-02-28T01:26:18;7.30;;;5.70;;
2257;SDS011;1136;51.574;7.706;2023-02-28T01:28:47;9.60;;;5.70;;
2257;SDS011;1136;51.574;7.706;2023-02-28T01:31:14;7.30;;;5.20;;
2257;SDS011;1136;51.574;7.706;2023-02-28T01:33:42;7.13;;;4.90;;
2257;SDS011;1136;51.574;7.706;2023-02-28T01:36:12;5.63;;;4.60;;
2257;SDS011;1136;51.574;7.706;2023-02-28T01:38:40;5.90;;;4.10;;
2257;SDS011;1136;51.574;7.706;2023-02-28T01:41:07;8.70;;;5.50;;
2257;SDS011;1136;51.574;7.706;2023-02-28T01:46:10;8.00;;;5.53;;
2257;SDS011;1136;51.574;7.706;2023-02-28T01:48:38;6.13;;;5.10;;
2257;SDS011;1136;51.574;7.706;2023-02-28T01:51:09;8.77;;;5.47;;
2257;SDS011;1136;51.574;7.706;2023-02-28T01:53:41;5.40;;;3.90;;
2257;SDS011;1136;51.574;7.706;2023-02-28T01:56:11;6.80;;;4.23;;
2257;SDS011;1136;51.574;7.706;2023-02-28T01:58:47;6.80;;;4.70;;
2257;SDS011;1136;51.574;7.706;2023-02-28T02:01:14;8.30;;;4.50;;
2257;SDS011;1136;51.574;7.706;2023-02-28T02:03:48;6.83;;;4.60;;
2257;SDS011;1136;51.574;7.706;2023-02-28T02:06:25;6.30;;;4.40;;
2257;SDS011;1136;51.574;7.706;2023-02-28T02:08:54;6.20;;;4.37;;
2257;SDS011;1136;51.574;7.706;2023-02-28T02:11:21;5.43;;;4.00;;
2257;SDS011;1136;51.574;7.706;2023-02-28T02:30:51;5.57;;;4.00;;
2257;SDS011;1136;51.574;7.706;2023-02-28T02:41:18;5.10;;;4.17;;
2257;SDS011;1136;51.574;7.706;2023-02-28T02:46:29;4.60;;;3.40;;
2257;SDS011;1136;51.574;7.706;2023-02-28T02:48:59;5.07;;;4.30;;
2257;SDS011;1136;51.574;7.706;2023-02-28T02:51:27;7.23;;;4.00;;
2257;SDS011;1136;51.574;7.706;2023-02-28T02:53:57;6.57;;;4.23;;
2257;SDS011;1136;51.574;7.706;2023-02-28T02:56:29;5.20;;;4.10;;
2257;SDS011;1136;51.574;7.706;2023-02-28T02:59:02;8.57;;;3.77;;
2257;SDS011;1136;51.574;7.706;2023-02-28T03:01:31;3.73;;;3.43;;
2257;SDS011;1136;51.574;7.706;2023-02-28T03:04:18;4.10;;;3.80;;
2257;SDS011;1136;51.574;7.706;2023-02-28T03:06:47;7.07;;;6.33;;
2257;SDS011;1136;51.574;7.706;2023-02-28T03:09:13;5.80;;;4.10;;
2257;SDS011;1136;51.574;7.706;2023-02-28T03:11:40;5.43;;;3.47;;
2257;SDS011;1136;51.574;7.706;2023-02-28T03:17:10;4.90;;;3.50;;
2257;SDS011;1136;51.574;7.706;2023-02-28T03:33:39;4.93;;;4.40;;
2257;SDS011;1136;51.574;7.706;2023-02-28T03:36:13;5.33;;;4.43;;
2257;SDS011;1136;51.574;7.706;2023-02-28T03:41:26;5.37;;;4.07;;
2257;SDS011;1136;51.574;7.706;2023-02-28T03:46:38;6.30;;;4.67;;
2257;SDS011;1136;51.574;7.706;2023-02-28T03:49:15;9.30;;;4.47;;
2257;SDS011;1136;51.574;7.706;2023-02-28T03:51:44;7.17;;;4.00;;
2257;SDS011;1136;51.574;7.706;2023-02-28T03:54:13;4.60;;;4.20;;
2257;SDS011;1136;51.574;7.706;2023-02-28T03:56:45;6.60;;;4.10;;
2257;SDS011;1136;51.574;7.706;2023-02-28T03:59:28;6.10;;;4.00;;
2257;SDS011;1136;51.574;7.706;2023-02-28T04:01:56;3.80;;;3.50;;
2257;SDS011;1136;51.574;7.706;2023-02-28T04:04:24;6.03;;;4.13;;
2257;SDS011;1136;51.574;7.706;2023-02-28T04:06:51;9.23;;;6.60;;
2257;SDS011;1136;51.574;7.706;2023-02-28T04:09:18;9.30;;;7.83;;
2257;SDS011;1136;51.574;7.706;2023-02-28T04:11:50;11.60;;;7.57;;
2257;SDS011;1136;51.574;7.706;2023-02-28T04:14:18;16.23;;;9.23;;
2257;SDS011;1136;51.574;7.706;2023-02-28T04:16:45;12.97;;;8.73;;
2257;SDS011;1136;51.574;7.706;2023-02-28T04:19:12;12.03;;;9.00;;
2257;SDS011;1136;51.574;7.706;2023-02-28T04:21:43;18.30;;;10.40;;
2257;SDS011;1136;51.574;7.706;2023-02-28T04:24:12;12.00;;;8.20;;
2257;SDS011;1136;51.574;7.706;2023-02-28T04:26:44;12.00;;;7.70;;
2257;SDS011;1136;51.574;7.706;2023-02-28T04:29:12;10.20;;;7.40;;
2257;SDS011;1136;51.574;7.706;2023-02-28T04:31:40;6.80;;;5.93;;
2257;SDS011;1136;51.574;7.706;2023-02-28T04:34:07;13.13;;;9.50;;
2257;SDS011;1136;51.574;7.706;2023-02-28T04:36:34;14.47;;;9.27;;
2257;SDS011;1136;51.574;7.706;2023-02-28T04:39:01;13.13;;;7.90;;
2257;SDS011;1136;51.574;7.706;2023-02-28T04:41:27;9.00;;;7.47;;
2257;SDS011;1136;51.574;7.706;2023-02-28T04:43:57;13.23;;;8.47;;
2257;SDS011;1136;51.574;7.706;2023-02-28T04:46:24;8.30;;;6.73;;
2257;SDS011;1136;51.574;7.706;2023-02-28T04:48:51;8.30;;;6.10;;
2257;SDS011;1136;51.574;7.706;2023-02-28T04:51:18;7.60;;;6.90;;
2257;SDS011;1136;51.574;7.706;2023-02-28T04:53:46;6.50;;;5.70;;
2257;SDS011;1136;51.574;7.706;2023-02-28T04:56:13;9.13;;;5.80;;
2257;SDS011;1136;51.574;7.706;2023-02-28T04:58:42;7.87;;;5.27;;
2257;SDS011;1136;51.574;7.706;2023-02-28T05:03:49;5.23;;;4.67;;
2257;SDS011;1136;51.574;7.706;2023-02-28T05:06:17;7.43;;;4.90;;
2257;SDS011;1136;51.574;7.706;2023-02-28T05:08:44;5.40;;;4.87;;
2257;SDS011;1136;51.574;7.706;2023-02-28T05:11:16;12.30;;;6.83;;
2257;SDS011;1136;51.574;7.706;2023-02-28T05:13:47;10.27;;;7.23;;
2257;SDS011;1136;51.574;7.706;2023-02-28T05:16:14;9.60;;;6.10;;
2257;SDS011;1136;51.574;7.706;2023-02-28T05:18:41;7.70;;;6.10;;
2257;SDS011;1136;51.574;7.706;2023-02-28T05:23:52;8.40;;;6.20;;
2257;SDS011;1136;51.574;7.706;2023-02-28T05:26:19;7.30;;;5.77;;
2257;SDS011;1136;51.574;7.706;2023-02-28T05:28:46;6.83;;;4.63;;
2257;SDS011;1136;51.574;7.706;2023-02-28T05:31:13;4.93;;;4.33;;
2257;SDS011;1136;51.574;7.706;2023-02-28T05:33:40;7.50;;;5.20;;
2257;SDS011;1136;51.574;7.706;2023-02-28T05:36:07;5.50;;;4.40;;
2257;SDS011;1136;51.574;7.706;2023-02-28T05:38:34;8.93;;;4.73;;
2257;SDS011;1136;51.574;7.706;2023-02-28T05:41:07;6.33;;;4.93;;
2257;SDS011;1136;51.574;7.706;2023-02-28T05:43:35;6.80;;;5.27;;
2257;SDS011;1136;51.574;7.706;2023-02-28T05:46:06;7.23;;;5.70;;
2257;SDS011;1136;51.574;7.706;2023-02-28T05:48:35;7.80;;;5.53;;
2257;SDS011;1136;51.574;7.706;2023-02-28T05:51:02;7.60;;;5.53;;
2257;SDS011;1136;51.574;7.706;2023-02-28T05:53:29;6.83;;;5.67;;
2257;SDS011;1136;51.574;7.706;2023-02-28T05:55:56;5.60;;;5.00;;
2257;SDS011;1136;51.574;7.706;2023-02-28T05:58:23;6.00;;;4.90;;
2257;SDS011;1136;51.574;7.706;2023-02-28T06:00:51;6.13;;;5.10;;
2257;SDS011;1136;51.574;7.706;2023-02-28T06:03:18;5.00;;;4.50;;
2257;SDS011;1136;51.574;7.706;2023-02-28T06:05:44;4.73;;;4.30;;
2257;SDS011;1136;51.574;7.706;2023-02-28T06:08:11;6.47;;;5.00;;
2257;SDS011;1136;51.574;7.706;2023-02-28T06:10:37;6.47;;;4.83;;
2257;SDS011;1136;51.574;7.706;2023-02-28T06:13:04;8.02;;;5.35;;
2257;SDS011;1136;51.574;7.706;2023-02-28T06:15:31;8.97;;;5.73;;
2257;SDS011;1136;51.574;7.706;2023-02-28T06:17:58;8.10;;;6.03;;
2257;SDS011;1136;51.574;7.706;2023-02-28T06:20:26;6.83;;;5.90;;
2257;SDS011;1136;51.574;7.706;2023-02-28T06:22:56;7.50;;;5.70;;
2257;SDS011;1136;51.574;7.706;2023-02-28T06:25:25;14.50;;;6.03;;
2257;SDS011;1136;51.574;7.706;2023-02-28T06:27:53;10.30;;;5.93;;
2257;SDS011;1136;51.574;7.706;2023-02-28T06:30:21;8.70;;;6.23;;
2257;SDS011;1136;51.574;7.706;2023-02-28T06:32:51;9.27;;;6.60;;
2257;SDS011;1136;51.574;7.706;2023-02-28T06:35:18;8.80;;;5.70;;
2257;SDS011;1136;51.574;7.706;2023-02-28T06:37:45;8.90;;;6.57;;
2257;SDS011;1136;51.574;7.706;2023-02-28T06:40:13;8.10;;;6.20;;
2257;SDS011;1136;51.574;7.706;2023-02-28T06:42:40;10.23;;;7.07;;
2257;SDS011;1136;51.574;7.706;2023-02-28T06:45:07;10.47;;;7.10;;
2257;SDS011;1136;51.574;7.706;2023-02-28T06:47:36;9.40;;;8.03;;
2257;SDS011;1136;51.574;7.706;2023-02-28T06:50:04;7.17;;;6.30;;
2257;SDS011;1136;51.574;7.706;2023-02-28T06:52:32;8.53;;;6.73;;
2257;SDS011;1136;51.574;7.706;2023-02-28T06:54:58;7.93;;;7.07;;
2257;SDS011;1136;51.574;7.706;2023-02-28T06:57:32;6.73;;;5.90;;
2257;SDS011;1136;51.574;7.706;2023-02-28T07:00:00;7.70;;;5.67;;
2257;SDS011;1136;51.574;7.706;2023-02-28T07:02:29;12.43;;;6.07;;
2257;SDS011;1136;51.574;7.706;2023-02-28T07:04:56;7.63;;;6.17;;
2257;SDS011;1136;51.574;7.706;2023-02-28T07:07:23;9.83;;;7.67;;
2257;SDS011;1136;51.574;7.706;2023-02-28T07:09:49;11.63;;;8.23;;
2257;SDS011;1136;51.574;7.706;2023-02-28T07:12:16;11.10;;;7.23;;
2257;SDS011;1136;51.574;7.706;2023-02-28T07:14:43;9.70;;;7.27;;
2257;SDS011;1136;51.574;7.706;2023-02-28T07:17:10;20.10;;;8.53;;
2257;SDS011;1136;51.574;7.706;2023-02-28T07:19:38;28.57;;;11.40;;
2257;SDS011;1136;51.574;7.706;2023-02-28T07:22:05;15.50;;;10.20;;
2257;SDS011;1136;51.574;7.706;2023-02-28T07:24:33;25.17;;;11.40;;
2257;SDS011;1136;51.574;7.706;2023-02-28T07:27:00;20.83;;;9.00;;
2257;SDS011;1136;51.574;7.706;2023-02-28T07:29:27;15.77;;;11.20;;
2257;SDS011;1136;51.574;7.706;2023-02-28T07:31:54;12.40;;;10.10;;
2257;SDS011;1136;51.574;7.706;2023-02-28T07:34:21;14.60;;;10.43;;
2257;SDS011;1136;51.574;7.706;2023-02-28T07:36:48;19.90;;;10.63;;
2257;SDS011;1136;51.574;7.706;2023-02-28T07:39:15;10.07;;;8.90;;
2257;SDS011;1136;51.574;7.706;2023-02-28T07:41:42;20.53;;;9.40;;
2257;SDS011;1136;51.574;7.706;2023-02-28T07:44:13;12.33;;;7.43;;
2257;SDS011;1136;51.574;7.706;2023-02-28T07:46:39;15.37;;;7.70;;
2257;SDS011;1136;51.574;7.706;2023-02-28T07:49:06;10.70;;;7.87;;
2257;SDS011;1136;51.574;7.706;2023-02-28T07:51:33;12.40;;;7.50;;
2257;SDS011;1136;51.574;7.706;2023-02-28T07:53:59;9.93;;;7.30;;
2257;SDS011;1136;51.574;7.706;2023-02-28T07:56:26;16.50;;;8.10;;
2257;SDS011;1136;51.574;7.706;2023-02-28T07:58:53;10.70;;;5.80;;
2257;SDS011;1136;51.574;7.706;2023-02-28T08:01:20;10.60;;;5.63;;
2257;SDS011;1136;51.574;7.706;2023-02-28T08:03:48;9.37;;;5.70;;
2257;SDS011;1136;51.574;7.706;2023-02-28T08:06:16;5.37;;;4.73;;
2257;SDS011;1136;51.574;7.706;2023-02-28T08:08:44;13.60;;;4.40;;
2257;SDS011;1136;51.574;7.706;2023-02-28T08:11:11;6.97;;;5.20;;
2257;SDS011;1136;51.574;7.706;2023-02-28T08:13:38;7.30;;;4.67;;
2257;SDS011;1136;51.574;7.706;2023-02-28T08:16:04;5.33;;;4.70;;
2257;SDS011;1136;51.574;7.706;2023-02-28T08:18:32;3.80;;;3.47;;
2257;SDS011;1136;51.574;7.706;2023-02-28T08:20:59;4.10;;;3.70;;
2257;SDS011;1136;51.574;7.706;2023-02-28T08:23:26;9.03;;;5.40;;
2257;SDS011;1136;51.574;7.706;2023-02-28T08:25:53;5.23;;;4.00;;
2257;SDS011;1136;51.574;7.706;2023-02-28T08:28:21;5.60;;;4.13;;
2257;SDS011;1136;51.574;7.706;2023-02-28T08:30:49;4.73;;;4.33;;
2257;SDS011;1136;51.574;7.706;2023-02-28T08:33:16;6.47;;;4.50;;
2257;SDS011;1136;51.574;7.706;2023-02-28T08:35:43;4.50;;;4.10;;
2257;SDS011;1136;51.574;7.706;2023-02-28T08:38:09;4.80;;;4.50;;
2257;SDS011;1136;51.574;7.706;2023-02-28T08:40:36;7.27;;;4.40;;
2257;SDS011;1136;51.574;7.706;2023-02-28T08:43:03;6.43;;;3.50;;
2257;SDS011;1136;51.574;7.706;2023-02-28T08:45:29;4.73;;;4.33;;
2257;SDS011;1136;51.574;7.706;2023-02-28T08:47:56;4.40;;;4.00;;
2257;SDS011;1136;51.574;7.706;2023-02-28T08:50:23;5.77;;;3.93;;
2257;SDS011;1136;51.574;7.706;2023-02-28T08:52:50;4.53;;;4.13;;
2257;SDS011;1136;51.574;7.706;2023-02-28T08:55:16;7.30;;;4.03;;
2257;SDS011;1136;51.574;7.706;2023-02-28T08:57:43;4.70;;;4.13;;
2257;SDS011;1136;51.574;7.706;2023-02-28T09:00:10;4.37;;;3.90;;
2257;SDS011;1136;51.574;7.706;2023-02-28T09:02:39;4.27;;;3.97;;
2257;SDS011;1136;51.574;7.706;2023-02-28T09:05:07;6.33;;;3.90;;
2257;SDS011;1136;51.574;7.706;2023-02-28T09:07:34;5.27;;;3.30;;
2257;SDS011;1136;51.574;7.706;2023-02-28T09:10:01;3.60;;;3.30;;
2257;SDS011;1136;51.574;7.706;2023-02-28T09:12:28;3.87;;;3.03;;
2257;SDS011;1136;51.574;7.706;2023-02-28T09:14:59;3.17;;;2.97;;
2257;SDS011;1136;51.574;7.706;2023-02-28T09:17:26;4.33;;;3.23;;
2257;SDS011;1136;51.574;7.706;2023-02-28T09:19:56;4.10;;;2.90;;
2257;SDS011;1136;51.574;7.706;2023-02-28T09:22:23;3.17;;;2.93;;
2257;SDS011;1136;51.574;7.706;2023-02-28T09:24:50;4.57;;;3.00;;
2257;SDS011;1136;51.574;7.706;2023-02-28T09:27:17;3.90;;;3.00;;
2257;SDS011;1136;51.574;7.706;2023-02-28T09:29:43;3.20;;;3.00;;
2257;SDS011;1136;51.574;7.706;2023-02-28T09:32:10;2.80;;;2.60;;
2257;SDS011;1136;51.574;7.706;2023-02-28T09:34:37;6.80;;;3.10;;
2257;SDS011;1136;51.574;7.706;2023-02-28T09:37:03;3.97;;;2.63;;
2257;SDS011;1136;51.574;7.706;2023-02-28T09:39:30;3.17;;;2.90;;
2257;SDS011;1136;51.574;7.706;2023-02-28T09:41:58;2.90;;;2.67;;
2257;SDS011;1136;51.574;7.706;2023-02-28T09:44:37;3.63;;;3.30;;
2257;SDS011;1136;51.574;7.706;2023-02-28T09:47:14;2.80;;;2.30;;
2257;SDS011;1136;51.574;7.706;2023-02-28T09:50:06;2.77;;;2.43;;
2257;SDS011;1136;51.574;7.706;2023-02-28T09:52:43;3.03;;;2.57;;
2257;SDS011;1136;51.574;7.706;2023-02-28T09:57:41;2.40;;;2.20;;
2257;SDS011;1136;51.574;7.706;2023-02-28T10:00:16;2.60;;;2.40;;
2257;SDS011;1136;51.574;7.706;2023-02-28T10:05:29;3.20;;;2.80;;
2257;SDS011;1136;51.574;7.706;2023-02-28T10:08:07;3.30;;;2.93;;
2257;SDS011;1136;51.574;7.706;2023-02-28T10:10:49;2.43;;;2.23;;
2257;SDS011;1136;51.574;7.706;2023-02-28T10:13:21;2.87;;;2.67;;
2257;SDS011;1136;51.574;7.706;2023-02-28T10:15:56;2.57;;;2.37;;
2257;SDS011;1136;51.574;7.706;2023-02-28T10:18:38;2.13;;;2.03;;
2257;SDS011;1136;51.574;7.706;2023-02-28T10:21:13;2.23;;;2.13;;
2257;SDS011;1136;51.574;7.706;2023-02-28T10:24:04;2.37;;;2.17;;
2257;SDS011;1136;51.574;7.706;2023-02-28T10:26:43;2.60;;;2.07;;
2257;SDS011;1136;51.574;7.706;2023-02-28T10:29:11;3.40;;;2.23;;
2257;SDS011;1136;51.574;7.706;2023-02-28T10:31:38;3.53;;;2.30;;
2257;SDS011;1136;51.574;7.706;2023-02-28T10:34:05;2.33;;;2.13;;
2257;SDS011;1136;51.574;7.706;2023-02-28T10:36:32;1.90;;;1.80;;
2257;SDS011;1136;51.574;7.706;2023-02-28T10:39:01;2.23;;;2.03;;
2257;SDS011;1136;51.574;7.706;2023-02-28T10:42:04;2.27;;;2.13;;
2257;SDS011;1136;51.574;7.706;2023-02-28T10:44:31;2.80;;;2.57;;
2257;SDS011;1136;51.574;7.706;2023-02-28T10:46:57;2.53;;;2.33;;
2257;SDS011;1136;51.574;7.706;2023-02-28T10:49:26;2.30;;;2.17;;
2257;SDS011;1136;51.574;7.706;2023-02-28T10:51:57;2.70;;;2.50;;
2257;SDS011;1136;51.574;7.706;2023-02-28T10:54:32;3.50;;;2.57;;
2257;SDS011;1136;51.574;7.706;2023-02-28T10:59:44;2.10;;;2.00;;
2257;SDS011;1136;51.574;7.706;2023-02-28T11:02:33;5.50;;;2.40;;
2257;SDS011;1136;51.574;7.706;2023-02-28T11:05:01;2.43;;;2.23;;
2257;SDS011;1136;51.574;7.706;2023-02-28T11:07:28;3.63;;;2.37;;
2257;SDS011;1136;51.574;7.706;2023-02-28T11:10:06;4.30;;;2.50;;
2257;SDS011;1136;51.574;7.706;2023-02-28T11:12:38;2.40;;;2.20;;
2257;SDS011;1136;51.574;7.706;2023-02-28T11:15:24;2.53;;;2.33;;
2257;SDS011;1136;51.574;7.706;2023-02-28T11:18:05;2.40;;;1.90;;
2257;SDS011;1136;51.574;7.706;2023-02-28T11:20:47;2.80;;;2.50;;
2257;SDS011;1136;51.574;7.706;2023-02-28T11:23:16;2.73;;;2.53;;
2257;SDS011;1136;51.574;7.706;2023-02-28T11:25:46;3.00;;;2.80;;
2257;SDS011;1136;51.574;7.706;2023-02-28T11:28:26;2.50;;;2.30;;
2257;SDS011;1136;51.574;7.706;2023-02-28T11:31:14;4.33;;;2.70;;
2257;SDS011;1136;51.574;7.706;2023-02-28T11:33:49;2.50;;;2.30;;
2257;SDS011;1136;51.574;7.706;2023-02-28T11:38:47;3.60;;;2.47;;
2257;SDS011;1136;51.574;7.706;2023-02-28T11:51:55;3.57;;;2.23;;
2257;SDS011;1136;51.574;7.706;2023-02-28T11:57:42;4.70;;;3.60;;
2257;SDS011;1136;51.574;7.706;2023-02-28T12:05:58;3.53;;;3.33;;
2257;SDS011;1136;51.574;7.706;2023-02-28T12:11:16;3.27;;;3.07;;
2257;SDS011;1136;51.574;7.706;2023-02-28T12:14:00;3.40;;;3.10;;
2257;SDS011;1136;51.574;7.706;2023-02-28T12:16:40;4.20;;;3.47;;
2257;SDS011;1136;51.574;7.706;2023-02-28T12:27:17;3.00;;;2.80;;
2257;SDS011;1136;51.574;7.706;2023-02-28T12:32:52;3.40;;;3.10;;
2257;SDS011;1136;51.574;7.706;2023-02-28T12:35:26;3.90;;;3.20;;
2257;SDS011;1136;51.574;7.706;2023-02-28T12:38:14;6.10;;;4.47;;
2257;SDS011;1136;51.574;7.706;2023-02-28T12:40:56;3.27;;;3.07;;
2257;SDS011;1136;51.574;7.706;2023-02-28T12:43:35;3.37;;;3.13;;
2257;SDS011;1136;51.574;7.706;2023-02-28T12:46:13;3.17;;;2.97;;
2257;SDS011;1136;51.574;7.706;2023-02-28T12:48:46;3.70;;;3.20;;
2257;SDS011;1136;51.574;7.706;2023-02-28T12:51:15;4.70;;;3.23;;
2257;SDS011;1136;51.574;7.706;2023-02-28T12:54:00;4.00;;;3.67;;
2257;SDS011;1136;51.574;7.706;2023-02-28T12:56:48;4.47;;;3.53;;
2257;SDS011;1136;51.574;7.706;2023-02-28T12:59:25;4.67;;;3.80;;
2257;SDS011;1136;51.574;7.706;2023-02-28T13:10:03;4.03;;;3.63;;
2257;SDS011;1136;51.574;7.706;2023-02-28T13:12:34;4.50;;;3.90;;
2257;SDS011;1136;51.574;7.706;2023-02-28T13:15:07;3.90;;;3.70;;
2257;SDS011;1136;51.574;7.706;2023-02-28T13:17:39;5.27;;;4.60;;
2257;SDS011;1136;51.574;7.706;2023-02-28T13:20:18;4.00;;;3.70;;
2257;SDS011;1136;51.574;7.706;2023-02-28T13:22:47;3.70;;;3.50;;
2257;SDS011;1136;51.574;7.706;2023-02-28T13:28:06;5.70;;;4.20;;
2257;SDS011;1136;51.574;7.706;2023-02-28T13:38:47;4.10;;;3.70;;
2257;SDS011;1136;51.574;7.706;2023-02-28T13:46:35;4.40;;;4.00;;
2257;SDS011;1136;51.574;7.706;2023-02-28T13:51:52;4.13;;;3.60;;
2257;SDS011;1136;51.574;7.706;2023-02-28T13:59:50;8.60;;;4.90;;
2257;SDS011;1136;51.574;7.706;2023-02-28T14:05:16;5.53;;;3.70;;
2257;SDS011;1136;51.574;7.706;2023-02-28T14:07:45;7.10;;;4.53;;
2257;SDS011;1136;51.574;7.706;2023-02-28T14:16:05;4.63;;;4.13;;
2257;SDS011;1136;51.574;7.706;2023-02-28T14:18:34;4.10;;;3.80;;
2257;SDS011;1136;51.574;7.706;2023-02-28T14:21:08;3.80;;;3.50;;
2257;SDS011;1136;51.574;7.706;2023-02-28T14:32:28;4.40;;;4.00;;
2257;SDS011;1136;51.574;7.706;2023-02-28T14:38:17;5.10;;;4.40;;
2257;SDS011;1136;51.574;7.706;2023-02-28T14:40:47;4.47;;;4.10;;
2257;SDS011;1136;51.574;7.706;2023-02-28T14:43:22;5.00;;;4.60;;
2257;SDS011;1136;51.574;7.706;2023-02-28T14:45:51;5.13;;;4.53;;
2257;SDS011;1136;51.574;7.706;2023-02-28T14:48:22;4.13;;;3.83;;
2257;SDS011;1136;51.574;7.706;2023-02-28T14:50:52;4.13;;;3.47;;
2257;SDS011;1136;51.574;7.706;2023-02-28T14:53:22;5.73;;;3.83;;
2257;SDS011;1136;51.574;7.706;2023-02-28T14:55:49;3.50;;;3.20;;
2257;SDS011;1136;51.574;7.706;2023-02-28T14:58:23;3.93;;;3.63;;
2257;SDS011;1136;51.574;7.706;2023-02-28T15:00:51;4.40;;;4.10;;
2257;SDS011;1136;51.574;7.706;2023-02-28T15:03:21;4.87;;;4.50;;
2257;SDS011;1136;51.574;7.706;2023-02-28T15:05:55;4.60;;;4.07;;
2257;SDS011;1136;51.574;7.706;2023-02-28T15:08:23;4.07;;;3.67;;
2257;SDS011;1136;51.574;7.706;2023-02-28T15:10:51;4.37;;;3.40;;
2257;SDS011;1136;51.574;7.706;2023-02-28T15:13:23;3.80;;;3.60;;
2257;SDS011;1136;51.574;7.706;2023-02-28T15:15:59;4.23;;;3.70;;
2257;SDS011;1136;51.574;7.706;2023-02-28T15:21:12;5.00;;;3.97;;
2257;SDS011;1136;51.574;7.706;2023-02-28T15:23:43;4.20;;;3.90;;
2257;SDS011;1136;51.574;7.706;2023-02-28T15:26:16;4.50;;;4.03;;
2257;SDS011;1136;51.574;7.706;2023-02-28T15:28:46;5.10;;;4.40;;
2257;SDS011;1136;51.574;7.706;2023-02-28T15:31:35;5.20;;;4.70;;
2257;SDS011;1136;51.574;7.706;2023-02-28T15:40:10;5.87;;;3.70;;
2257;SDS011;1136;51.574;7.706;2023-02-28T15:42:39;4.60;;;4.10;;
2257;SDS011;1136;51.574;7.706;2023-02-28T15:45:25;4.50;;;4.10;;
2257;SDS011;1136;51.574;7.706;2023-02-28T15:47:53;4.27;;;3.73;;
2257;SDS011;1136;51.574;7.706;2023-02-28T15:50:27;6.67;;;3.83;;
2257;SDS011;1136;51.574;7.706;2023-02-28T15:52:56;7.57;;;4.27;;
2257;SDS011;1136;51.574;7.706;2023-02-28T15:55:24;6.43;;;3.23;;
2257;SDS011;1136;51.574;7.706;2023-02-28T15:57:54;4.20;;;3.80;;
2257;SDS011;1136;51.574;7.706;2023-02-28T16:00:25;4.00;;;3.60;;
2257;SDS011;1136;51.574;7.706;2023-02-28T16:02:53;5.70;;;4.63;;
2257;SDS011;1136;51.574;7.706;2023-02-28T16:05:25;4.67;;;4.17;;
2257;SDS011;1136;51.574;7.706;2023-02-28T16:08:00;4.03;;;3.70;;
2257;SDS011;1136;51.574;7.706;2023-02-28T16:10:32;4.57;;;4.17;;
2257;SDS011;1136;51.574;7.706;2023-02-28T16:13:01;4.53;;;3.63;;
2257;SDS011;1136;51.574;7.706;2023-02-28T16:15:37;4.07;;;3.67;;
2257;SDS011;1136;51.574;7.706;2023-02-28T16:18:09;5.17;;;4.33;;
2257;SDS011;1136;51.574;7.706;2023-02-28T16:20:37;4.90;;;4.07;;
2257;SDS011;1136;51.574;7.706;2023-02-28T16:23:04;4.27;;;3.80;;
2257;SDS011;1136;51.574;7.706;2023-02-28T16:25:35;7.80;;;4.23;;
2257;SDS011;1136;51.574;7.706;2023-02-28T16:28:03;3.97;;;3.63;;
2257;SDS011;1136;51.574;7.706;2023-02-28T16:30:30;5.80;;;3.23;;
2257;SDS011;1136;51.574;7.706;2023-02-28T16:33:00;5.20;;;4.80;;
2257;SDS011;1136;51.574;7.706;2023-02-28T16:35:26;4.03;;;3.63;;
2257;SDS011;1136;51.574;7.706;2023-02-28T16:37:53;4.63;;;4.20;;
2257;SDS011;1136;51.574;7.706;2023-02-28T16:40:21;4.10;;;3.50;;
2257;SDS011;1136;51.574;7.706;2023-02-28T16:42:52;5.27;;;4.07;;
2257;SDS011;1136;51.574;7.706;2023-02-28T16:45:21;5.10;;;4.60;;
2257;SDS011;1136;51.574;7.706;2023-02-28T16:47:50;8.00;;;4.50;;
2257;SDS011;1136;51.574;7.706;2023-02-28T16:50:18;6.93;;;6.23;;
2257;SDS011;1136;51.574;7.706;2023-02-28T16:52:46;6.60;;;5.90;;
2257;SDS011;1136;51.574;7.706;2023-02-28T16:55:14;5.80;;;4.93;;
2257;SDS011;1136;51.574;7.706;2023-02-28T16:57:41;6.40;;;5.83;;
2257;SDS011;1136;51.574;7.706;2023-02-28T17:00:11;4.63;;;4.30;;
2257;SDS011;1136;51.574;7.706;2023-02-28T17:02:39;8.50;;;5.23;;
2257;SDS011;1136;51.574;7.706;2023-02-28T17:05:08;7.83;;;6.43;;
2257;SDS011;1136;51.574;7.706;2023-02-28T17:07:37;25.67;;;20.93;;
2257;SDS011;1136;51.574;7.706;2023-02-28T17:10:15;8.27;;;6.57;;
2257;SDS011;1136;51.574;7.706;2023-02-28T17:12:53;7.13;;;5.43;;
2257;SDS011;1136;51.574;7.706;2023-02-28T17:15:28;9.47;;;7.93;;
2257;SDS011;1136;51.574;7.706;2023-02-28T17:17:55;10.13;;;6.47;;
2257;SDS011;1136;51.574;7.706;2023-02-28T17:20:22;7.93;;;7.23;;
2257;SDS011;1136;51.574;7.706;2023-02-28T17:22:49;6.47;;;5.33;;
2257;SDS011;1136;51.574;7.706;2023-02-28T17:25:16;7.57;;;6.33;;
2257;SDS011;1136;51.574;7.706;2023-02-28T17:27:43;11.50;;;7.20;;
2257;SDS011;1136;51.574;7.706;2023-02-28T17:30:13;9.53;;;7.13;;
2257;SDS011;1136;51.574;7.706;2023-02-28T17:32:41;10.03;;;7.13;;
2257;SDS011;1136;51.574;7.706;2023-02-28T17:35:08;8.80;;;7.40;;
2257;SDS011;1136;51.574;7.706;2023-02-28T17:37:35;9.53;;;7.60;;
2257;SDS011;1136;51.574;7.706;2023-02-28T17:40:02;9.50;;;7.80;;
2257;SDS011;1136;51.574;7.706;2023-02-28T17:42:29;11.63;;;9.63;;
2257;SDS011;1136;51.574;7.706;2023-02-28T17:44:56;11.40;;;8.07;;
2257;SDS011;1136;51.574;7.706;2023-02-28T17:47:22;10.47;;;9.33;;
2257;SDS011;1136;51.574;7.706;2023-02-28T17:49:49;10.30;;;9.27;;
2257;SDS011;1136;51.574;7.706;2023-02-28T17:52:16;12.63;;;10.40;;
2257;SDS011;1136;51.574;7.706;2023-02-28T17:54:42;15.50;;;11.73;;
2257;SDS011;1136;51.574;7.706;2023-02-28T17:57:12;11.87;;;9.07;;
2257;SDS011;1136;51.574;7.706;2023-02-28T17:59:41;12.37;;;8.90;;
2257;SDS011;1136;51.574;7.706;2023-02-28T18:02:09;10.57;;;9.27;;
2257;SDS011;1136;51.574;7.706;2023-02-28T18:04:38;12.00;;;10.03;;
2257;SDS011;1136;51.574;7.706;2023-02-28T18:07:05;11.90;;;9.53;;
2257;SDS011;1136;51.574;7.706;2023-02-28T18:09:33;15.07;;;10.97;;
2257;SDS011;1136;51.574;7.706;2023-02-28T18:11:59;15.80;;;10.13;;